sensor_id;sensor_type;location;lat;lon;timestamp;pressure;altitude;pressure_sealevel;temperature;humidity
12951;BME280;6540;50.858;7.232;2023-10-08T00:00:44;51749.66;;;-142.34;31.33
12951;BME280;6540;50.858;7.232;2023-10-08T00:03:15;51757.72;;;-142.34;32.33
12951;BME280;6540;50.858;7.232;2023-10-08T00:05:45;51773.84;;;-142.34;31.73
12951;BME280;6540;50.858;7.232;2023-10-08T00:08:11;51761.75;;;-142.34;31.43
12951;BME280;6540;50.858;7.232;2023-10-08T00:10:39;51749.66;;;-142.34;30.87
12951;BME280;6540;50.858;7.232;2023-10-08T00:13:11;51729.47;;;-142.34;30.96
12951;BME280;6540;50.858;7.232;2023-10-08T00:15:38;51721.41;;;-142.34;30.25
12951;BME280;6540;50.858;7.232;2023-10-08T00:18:07;51721.41;;;-142.34;30.89
12951;BME280;6540;50.858;7.232;2023-10-08T00:20:34;51705.25;;;-142.34;30.45
12951;BME280;6540;50.858;7.232;2023-10-08T00:23:24;51717.38;;;-142.34;30.67
12951;BME280;6540;50.858;7.232;2023-10-08T00:25:52;51721.41;;;-142.34;30.55
12951;BME280;6540;50.858;7.232;2023-10-08T00:28:17;51741.56;;;-142.34;30.66
12951;BME280;6540;50.858;7.232;2023-10-08T00:30:42;51737.53;;;-142.34;30.58
12951;BME280;6540;50.858;7.232;2023-10-08T00:33:08;51717.38;;;-142.34;30.90
12951;BME280;6540;50.858;7.232;2023-10-08T00:35:41;51729.47;;;-142.34;30.35
12951;BME280;6540;50.858;7.232;2023-10-08T00:38:10;51721.41;;;-142.34;30.29
12951;BME280;6540;50.858;7.232;2023-10-08T00:40:46;51733.50;;;-142.34;30.11
12951;BME280;6540;50.858;7.232;2023-10-08T00:43:33;51737.53;;;-142.34;30.12
12951;BME280;6540;50.858;7.232;2023-10-08T00:46:04;51717.38;;;-142.34;30.46
12951;BME280;6540;50.858;7.232;2023-10-08T00:48:31;51741.56;;;-142.34;30.70
12951;BME280;6540;50.858;7.232;2023-10-08T00:51:03;51737.53;;;-142.34;30.81
12951;BME280;6540;50.858;7.232;2023-10-08T00:56:28;51753.69;;;-142.34;30.82
12951;BME280;6540;50.858;7.232;2023-10-08T00:59:10;51775.88;;;-142.34;31.54
12951;BME280;6540;50.858;7.232;2023-10-08T01:01:45;51735.53;;;-142.34;31.05
12951;BME280;6540;50.858;7.232;2023-10-08T01:04:20;51725.44;;;-142.34;30.38
12951;BME280;6540;50.858;7.232;2023-10-08T01:06:54;51781.91;;;-142.34;30.48
12951;BME280;6540;50.858;7.232;2023-10-08T01:09:22;51763.75;;;-142.34;30.61
12951;BME280;6540;50.858;7.232;2023-10-08T01:12:09;51779.91;;;-142.34;30.38
12951;BME280;6540;50.858;7.232;2023-10-08T01:14:38;51743.59;;;-142.34;30.53
12951;BME280;6540;50.858;7.232;2023-10-08T01:17:07;51765.78;;;-142.34;30.80
12951;BME280;6540;50.858;7.232;2023-10-08T01:19:32;51798.06;;;-142.34;31.21
12951;BME280;6540;50.858;7.232;2023-10-08T01:22:04;51747.63;;;-142.34;30.77
12951;BME280;6540;50.858;7.232;2023-10-08T01:24:32;51775.88;;;-142.34;30.97
12951;BME280;6540;50.858;7.232;2023-10-08T01:27:00;51779.91;;;-142.34;30.89
12951;BME280;6540;50.858;7.232;2023-10-08T01:29:25;51769.81;;;-142.34;30.48
12951;BME280;6540;50.858;7.232;2023-10-08T01:31:53;51763.75;;;-142.34;30.18
12951;BME280;6540;50.858;7.232;2023-10-08T01:34:19;51765.78;;;-142.34;30.38
12951;BME280;6540;50.858;7.232;2023-10-08T01:36:51;51775.88;;;-142.34;31.12
12951;BME280;6540;50.858;7.232;2023-10-08T01:39:17;51790.00;;;-142.34;30.75
12951;BME280;6540;50.858;7.232;2023-10-08T01:41:45;51769.81;;;-142.34;31.43
12951;BME280;6540;50.858;7.232;2023-10-08T01:44:16;51830.34;;;-142.34;31.43
12951;BME280;6540;50.858;7.232;2023-10-08T01:46:42;51769.81;;;-142.34;31.12
12951;BME280;6540;50.858;7.232;2023-10-08T01:49:08;51785.94;;;-142.34;31.43
12951;BME280;6540;50.858;7.232;2023-10-08T01:51:39;51769.81;;;-142.34;31.57
12951;BME280;6540;50.858;7.232;2023-10-08T01:54:13;51761.75;;;-142.34;31.57
12951;BME280;6540;50.858;7.232;2023-10-08T01:56:43;51790.00;;;-142.34;31.94
12951;BME280;6540;50.858;7.232;2023-10-08T01:59:13;51773.84;;;-142.34;32.48
12951;BME280;6540;50.858;7.232;2023-10-08T02:01:40;51790.00;;;-142.34;31.30
12951;BME280;6540;50.858;7.232;2023-10-08T02:04:06;51787.97;;;-142.34;30.90
12951;BME280;6540;50.858;7.232;2023-10-08T02:06:37;51806.13;;;-142.34;30.98
12951;BME280;6540;50.858;7.232;2023-10-08T02:09:05;51765.78;;;-142.34;30.56
12951;BME280;6540;50.858;7.232;2023-10-08T02:11:48;51790.00;;;-142.34;31.89
12951;BME280;6540;50.858;7.232;2023-10-08T02:14:21;51790.00;;;-142.34;30.95
12951;BME280;6540;50.858;7.232;2023-10-08T02:16:48;51777.88;;;-142.34;30.54
12951;BME280;6540;50.858;7.232;2023-10-08T02:19:14;51794.03;;;-142.34;30.29
12951;BME280;6540;50.858;7.232;2023-10-08T02:21:44;51787.97;;;-142.34;31.45
12951;BME280;6540;50.858;7.232;2023-10-08T02:24:12;51814.19;;;-142.34;31.48
12951;BME280;6540;50.858;7.232;2023-10-08T02:26:38;51818.22;;;-142.34;31.33
12951;BME280;6540;50.858;7.232;2023-10-08T02:29:04;51777.88;;;-142.34;30.77
12951;BME280;6540;50.858;7.232;2023-10-08T02:31:41;51792.00;;;-142.34;30.87
12951;BME280;6540;50.858;7.232;2023-10-08T02:34:07;51826.31;;;-142.34;32.30
12951;BME280;6540;50.858;7.232;2023-10-08T02:36:36;51785.94;;;-142.34;30.77
12951;BME280;6540;50.858;7.232;2023-10-08T02:39:03;51790.00;;;-142.34;30.24
12951;BME280;6540;50.858;7.232;2023-10-08T02:41:51;51790.00;;;-142.34;30.69
12951;BME280;6540;50.858;7.232;2023-10-08T02:44:17;51806.13;;;-142.34;32.97
12951;BME280;6540;50.858;7.232;2023-10-08T02:46:45;51814.19;;;-142.34;31.19
12951;BME280;6540;50.858;7.232;2023-10-08T02:49:19;51767.81;;;-142.34;30.50
12951;BME280;6540;50.858;7.232;2023-10-08T02:51:53;51783.94;;;-142.34;30.49
12951;BME280;6540;50.858;7.232;2023-10-08T02:54:20;51806.13;;;-142.34;31.65
12951;BME280;6540;50.858;7.232;2023-10-08T02:56:51;51785.94;;;-142.34;32.41
12951;BME280;6540;50.858;7.232;2023-10-08T02:59:17;51824.28;;;-142.34;32.57
12951;BME280;6540;50.858;7.232;2023-10-08T03:01:43;51792.00;;;-142.34;32.91
12951;BME280;6540;50.858;7.232;2023-10-08T03:04:09;51802.09;;;-142.34;31.04
12951;BME280;6540;50.858;7.232;2023-10-08T03:06:47;51798.06;;;-142.34;31.29
12951;BME280;6540;50.858;7.232;2023-10-08T03:09:22;51798.06;;;-142.34;31.84
12951;BME280;6540;50.858;7.232;2023-10-08T03:11:50;51806.13;;;-142.34;31.41
12951;BME280;6540;50.858;7.232;2023-10-08T03:14:17;51779.91;;;-142.34;30.53
12951;BME280;6540;50.858;7.232;2023-10-08T03:16:50;51781.91;;;-142.34;30.75
12951;BME280;6540;50.858;7.232;2023-10-08T03:19:17;51785.94;;;-142.34;30.51
12951;BME280;6540;50.858;7.232;2023-10-08T03:21:48;51765.78;;;-142.34;31.20
12951;BME280;6540;50.858;7.232;2023-10-08T03:24:17;51777.88;;;-142.34;31.46
12951;BME280;6540;50.858;7.232;2023-10-08T03:26:58;51755.69;;;-142.34;30.63
12951;BME280;6540;50.858;7.232;2023-10-08T03:29:45;51749.66;;;-142.34;31.13
12951;BME280;6540;50.858;7.232;2023-10-08T03:32:12;51787.97;;;-142.34;30.77
12951;BME280;6540;50.858;7.232;2023-10-08T03:34:44;51757.72;;;-142.34;30.27
12951;BME280;6540;50.858;7.232;2023-10-08T03:37:12;51763.75;;;-142.34;31.06
12951;BME280;6540;50.858;7.232;2023-10-08T03:39:45;51798.06;;;-142.34;30.82
12951;BME280;6540;50.858;7.232;2023-10-08T03:42:22;51751.66;;;-142.34;30.55
12951;BME280;6540;50.858;7.232;2023-10-08T03:44:51;51781.91;;;-142.34;30.50
12951;BME280;6540;50.858;7.232;2023-10-08T03:47:21;51769.81;;;-142.34;31.51
12951;BME280;6540;50.858;7.232;2023-10-08T03:49:51;51777.88;;;-142.34;31.65
12951;BME280;6540;50.858;7.232;2023-10-08T03:52:17;51787.97;;;-142.34;31.77
12951;BME280;6540;50.858;7.232;2023-10-08T03:54:53;51806.13;;;-142.34;32.76
12951;BME280;6540;50.858;7.232;2023-10-08T03:57:38;51802.09;;;-142.34;31.40
12951;BME280;6540;50.858;7.232;2023-10-08T04:00:10;51794.03;;;-142.34;31.04
12951;BME280;6540;50.858;7.232;2023-10-08T04:02:54;51824.28;;;-142.34;31.26
12951;BME280;6540;50.858;7.232;2023-10-08T04:05:26;51765.78;;;-142.34;30.50
12951;BME280;6540;50.858;7.232;2023-10-08T04:08:09;51765.78;;;-142.34;30.14
12951;BME280;6540;50.858;7.232;2023-10-08T04:10:50;51749.66;;;-142.34;30.80
12951;BME280;6540;50.858;7.232;2023-10-08T04:13:32;51798.06;;;-142.34;30.30
12951;BME280;6540;50.858;7.232;2023-10-08T04:15:58;51765.78;;;-142.34;30.34
12951;BME280;6540;50.858;7.232;2023-10-08T04:18:23;51777.88;;;-142.34;30.87
12951;BME280;6540;50.858;7.232;2023-10-08T04:20:49;51761.75;;;-142.34;30.51
12951;BME280;6540;50.858;7.232;2023-10-08T04:23:25;51741.56;;;-142.34;30.40
12951;BME280;6540;50.858;7.232;2023-10-08T04:25:51;51787.97;;;-142.34;30.38
12951;BME280;6540;50.858;7.232;2023-10-08T04:28:20;51763.75;;;-142.34;30.43
12951;BME280;6540;50.858;7.232;2023-10-08T04:30:46;51751.66;;;-142.34;30.33
12951;BME280;6540;50.858;7.232;2023-10-08T04:33:16;51783.94;;;-142.34;30.69
12951;BME280;6540;50.858;7.232;2023-10-08T04:35:43;51777.88;;;-142.34;30.29
12951;BME280;6540;50.858;7.232;2023-10-08T04:38:24;51741.56;;;-142.34;30.24
12951;BME280;6540;50.858;7.232;2023-10-08T04:41:01;51757.72;;;-142.34;29.86
12951;BME280;6540;50.858;7.232;2023-10-08T04:43:33;51769.81;;;-142.34;29.81
12951;BME280;6540;50.858;7.232;2023-10-08T04:46:03;51745.59;;;-142.34;30.24
12951;BME280;6540;50.858;7.232;2023-10-08T04:48:48;51745.59;;;-142.34;30.71
12951;BME280;6540;50.858;7.232;2023-10-08T04:51:15;51763.75;;;-142.34;29.99
12951;BME280;6540;50.858;7.232;2023-10-08T04:53:43;51765.78;;;-142.34;30.31
12951;BME280;6540;50.858;7.232;2023-10-08T04:56:11;51761.75;;;-142.34;30.03
12951;BME280;6540;50.858;7.232;2023-10-08T04:58:44;51753.69;;;-142.34;29.92
12951;BME280;6540;50.858;7.232;2023-10-08T05:01:18;51765.78;;;-142.34;30.19
12951;BME280;6540;50.858;7.232;2023-10-08T05:03:48;51773.84;;;-142.34;30.63
12951;BME280;6540;50.858;7.232;2023-10-08T05:06:39;51808.16;;;-142.34;32.64
12951;BME280;6540;50.858;7.232;2023-10-08T05:09:12;51810.16;;;-142.34;32.64
12951;BME280;6540;50.858;7.232;2023-10-08T05:11:45;51790.00;;;-142.34;31.28
12951;BME280;6540;50.858;7.232;2023-10-08T05:14:13;51769.81;;;-142.34;30.96
12951;BME280;6540;50.858;7.232;2023-10-08T05:17:01;51783.94;;;-142.34;30.29
12951;BME280;6540;50.858;7.232;2023-10-08T05:19:40;51757.72;;;-142.34;31.03
12951;BME280;6540;50.858;7.232;2023-10-08T05:22:07;51781.91;;;-142.34;30.29
12951;BME280;6540;50.858;7.232;2023-10-08T05:24:48;51763.75;;;-142.34;30.85
12951;BME280;6540;50.858;7.232;2023-10-08T05:27:53;51775.88;;;-142.34;30.67
12951;BME280;6540;50.858;7.232;2023-10-08T05:30:20;51798.06;;;-142.34;30.48
12951;BME280;6540;50.858;7.232;2023-10-08T05:33:08;51753.69;;;-142.34;30.36
12951;BME280;6540;50.858;7.232;2023-10-08T05:35:45;51743.59;;;-142.34;30.62
12951;BME280;6540;50.858;7.232;2023-10-08T05:38:13;51757.72;;;-142.34;30.43
12951;BME280;6540;50.858;7.232;2023-10-08T05:40:42;51769.81;;;-142.34;30.14
12951;BME280;6540;50.858;7.232;2023-10-08T05:43:33;51802.09;;;-142.34;31.12
12951;BME280;6540;50.858;7.232;2023-10-08T05:46:19;51800.06;;;-142.34;30.80
12951;BME280;6540;50.858;7.232;2023-10-08T05:48:54;51773.84;;;-142.34;30.17
12951;BME280;6540;50.858;7.232;2023-10-08T05:51:37;51753.69;;;-142.34;30.31
12951;BME280;6540;50.858;7.232;2023-10-08T05:54:13;51757.72;;;-142.34;30.19
12951;BME280;6540;50.858;7.232;2023-10-08T05:57:06;51777.88;;;-142.34;31.54
12951;BME280;6540;50.858;7.232;2023-10-08T05:59:35;51796.03;;;-142.34;34.08
12951;BME280;6540;50.858;7.232;2023-10-08T06:02:20;51798.06;;;-142.34;32.91
12951;BME280;6540;50.858;7.232;2023-10-08T06:05:00;51794.03;;;-142.34;32.54
12951;BME280;6540;50.858;7.232;2023-10-08T06:07:43;51769.81;;;-142.34;30.93
12951;BME280;6540;50.858;7.232;2023-10-08T06:10:19;51761.75;;;-142.34;30.72
12951;BME280;6540;50.858;7.232;2023-10-08T06:13:01;51765.78;;;-142.34;30.72
12951;BME280;6540;50.858;7.232;2023-10-08T06:15:43;51814.19;;;-142.34;30.63
12951;BME280;6540;50.858;7.232;2023-10-08T06:18:32;51779.91;;;-142.34;30.57
12951;BME280;6540;50.858;7.232;2023-10-08T06:21:03;51802.09;;;-142.34;32.54
12951;BME280;6540;50.858;7.232;2023-10-08T06:23:40;51773.84;;;-142.34;31.84
12951;BME280;6540;50.858;7.232;2023-10-08T06:26:07;51808.16;;;-142.34;32.62
12951;BME280;6540;50.858;7.232;2023-10-08T06:28:39;51777.88;;;-142.34;33.06
12951;BME280;6540;50.858;7.232;2023-10-08T06:31:06;51753.69;;;-142.34;30.87
12951;BME280;6540;50.858;7.232;2023-10-08T06:33:40;51785.94;;;-142.34;30.72
12951;BME280;6540;50.858;7.232;2023-10-08T06:36:06;51757.72;;;-142.34;30.41
12951;BME280;6540;50.858;7.232;2023-10-08T06:38:39;51753.69;;;-142.34;30.02
12951;BME280;6540;50.858;7.232;2023-10-08T06:41:08;51753.69;;;-142.34;30.43
12951;BME280;6540;50.858;7.232;2023-10-08T06:43:46;51773.84;;;-142.34;30.17
12951;BME280;6540;50.858;7.232;2023-10-08T06:46:16;51719.38;;;-142.34;30.12
12951;BME280;6540;50.858;7.232;2023-10-08T06:48:45;51717.38;;;-142.34;30.08
12951;BME280;6540;50.858;7.232;2023-10-08T06:51:11;51743.59;;;-142.34;30.26
12951;BME280;6540;50.858;7.232;2023-10-08T06:53:44;51713.34;;;-142.34;30.15
12951;BME280;6540;50.858;7.232;2023-10-08T06:56:13;51747.63;;;-142.34;30.63
12951;BME280;6540;50.858;7.232;2023-10-08T06:58:40;51757.72;;;-142.34;30.68
12951;BME280;6540;50.858;7.232;2023-10-08T07:01:11;51753.69;;;-142.34;30.41
12951;BME280;6540;50.858;7.232;2023-10-08T07:03:38;51733.50;;;-142.34;30.21
12951;BME280;6540;50.858;7.232;2023-10-08T07:06:04;51727.44;;;-142.34;30.38
12951;BME280;6540;50.858;7.232;2023-10-08T07:08:43;51745.59;;;-142.34;30.37
12951;BME280;6540;50.858;7.232;2023-10-08T07:11:12;51765.78;;;-142.34;30.75
12951;BME280;6540;50.858;7.232;2023-10-08T07:13:37;51731.50;;;-142.34;30.50
12951;BME280;6540;50.858;7.232;2023-10-08T07:16:05;51729.47;;;-142.34;30.60
12951;BME280;6540;50.858;7.232;2023-10-08T07:18:33;51741.56;;;-142.34;30.50
12951;BME280;6540;50.858;7.232;2023-10-08T07:20:59;51759.72;;;-142.34;30.40
12951;BME280;6540;50.858;7.232;2023-10-08T07:23:37;51737.53;;;-142.34;30.49
12951;BME280;6540;50.858;7.232;2023-10-08T07:26:19;51733.50;;;-142.34;30.00
12951;BME280;6540;50.858;7.232;2023-10-08T07:28:50;51721.41;;;-142.34;30.49
12951;BME280;6540;50.858;7.232;2023-10-08T07:31:21;51713.34;;;-142.34;30.26
12951;BME280;6540;50.858;7.232;2023-10-08T07:33:53;51721.41;;;-142.34;30.25
12951;BME280;6540;50.858;7.232;2023-10-08T07:36:25;51713.34;;;-142.34;29.96
12951;BME280;6540;50.858;7.232;2023-10-08T07:38:52;51703.25;;;-142.34;29.90
12951;BME280;6540;50.858;7.232;2023-10-08T07:41:19;51741.56;;;-142.34;30.45
12951;BME280;6540;50.858;7.232;2023-10-08T07:43:46;51733.50;;;-142.34;30.26
12951;BME280;6540;50.858;7.232;2023-10-08T07:46:21;51743.59;;;-142.34;30.62
12951;BME280;6540;50.858;7.232;2023-10-08T07:48:47;51753.69;;;-142.34;30.50
12951;BME280;6540;50.858;7.232;2023-10-08T07:51:14;51713.34;;;-142.34;30.60
12951;BME280;6540;50.858;7.232;2023-10-08T07:53:39;51747.63;;;-142.34;31.62
12951;BME280;6540;50.858;7.232;2023-10-08T07:56:08;51755.69;;;-142.34;31.65
12951;BME280;6540;50.858;7.232;2023-10-08T07:58:37;51785.94;;;-142.34;31.20
12951;BME280;6540;50.858;7.232;2023-10-08T08:01:07;51729.47;;;-142.34;30.79
12951;BME280;6540;50.858;7.232;2023-10-08T08:03:34;51723.41;;;-142.34;31.46
12951;BME280;6540;50.858;7.232;2023-10-08T08:06:05;51725.44;;;-142.34;30.59
12951;BME280;6540;50.858;7.232;2023-10-08T08:08:33;51737.53;;;-142.34;31.50
12951;BME280;6540;50.858;7.232;2023-10-08T08:11:08;51753.69;;;-142.34;31.07
12951;BME280;6540;50.858;7.232;2023-10-08T08:13:43;51725.44;;;-142.34;30.35
12951;BME280;6540;50.858;7.232;2023-10-08T08:16:12;51679.03;;;-142.34;30.32
12951;BME280;6540;50.858;7.232;2023-10-08T08:18:47;51715.34;;;-142.34;30.86
12951;BME280;6540;50.858;7.232;2023-10-08T08:21:14;51737.53;;;-142.34;30.59
12951;BME280;6540;50.858;7.232;2023-10-08T08:23:46;51673.00;;;-142.34;30.17
12951;BME280;6540;50.858;7.232;2023-10-08T08:26:23;51697.19;;;-142.34;29.85
12951;BME280;6540;50.858;7.232;2023-10-08T08:29:05;51705.25;;;-142.34;29.96
12951;BME280;6540;50.858;7.232;2023-10-08T08:31:34;51693.16;;;-142.34;30.75
12951;BME280;6540;50.858;7.232;2023-10-08T08:34:03;51747.63;;;-142.34;31.26
12951;BME280;6540;50.858;7.232;2023-10-08T08:36:33;51713.34;;;-142.34;30.05
12951;BME280;6540;50.858;7.232;2023-10-08T08:38:59;51713.34;;;-142.34;29.27
12951;BME280;6540;50.858;7.232;2023-10-08T08:41:24;51693.16;;;-142.34;28.92
12951;BME280;6540;50.858;7.232;2023-10-08T08:43:52;51693.16;;;-142.34;29.60
12951;BME280;6540;50.858;7.232;2023-10-08T08:46:34;51697.19;;;-142.34;29.97
12951;BME280;6540;50.858;7.232;2023-10-08T08:49:07;51741.56;;;-142.34;30.23
12951;BME280;6540;50.858;7.232;2023-10-08T08:51:34;51721.41;;;-142.34;31.16
12951;BME280;6540;50.858;7.232;2023-10-08T08:54:01;51753.69;;;-142.34;31.43
12951;BME280;6540;50.858;7.232;2023-10-08T08:56:33;51721.41;;;-142.34;30.60
12951;BME280;6540;50.858;7.232;2023-10-08T08:59:00;51735.53;;;-142.34;30.25
12951;BME280;6540;50.858;7.232;2023-10-08T09:01:27;51717.38;;;-142.34;30.14
12951;BME280;6540;50.858;7.232;2023-10-08T09:04:01;51689.13;;;-142.34;29.70
12951;BME280;6540;50.858;7.232;2023-10-08T09:06:27;51707.28;;;-142.34;29.65
12951;BME280;6540;50.858;7.232;2023-10-08T09:08:52;51713.34;;;-142.34;29.73
12951;BME280;6540;50.858;7.232;2023-10-08T09:11:21;51713.34;;;-142.34;29.18
12951;BME280;6540;50.858;7.232;2023-10-08T09:13:46;51697.19;;;-142.34;29.25
12951;BME280;6540;50.858;7.232;2023-10-08T09:16:15;51683.06;;;-142.34;29.60
12951;BME280;6540;50.858;7.232;2023-10-08T09:18:44;51693.16;;;-142.34;29.49
12951;BME280;6540;50.858;7.232;2023-10-08T09:21:14;51670.97;;;-142.34;29.04
12951;BME280;6540;50.858;7.232;2023-10-08T09:23:43;51662.91;;;-142.34;28.92
12951;BME280;6540;50.858;7.232;2023-10-08T09:26:12;51687.09;;;-142.34;28.91
12951;BME280;6540;50.858;7.232;2023-10-08T09:28:40;51636.69;;;-142.34;28.41
12951;BME280;6540;50.858;7.232;2023-10-08T09:31:11;51652.81;;;-142.34;28.48
12951;BME280;6540;50.858;7.232;2023-10-08T09:33:37;51650.81;;;-142.34;27.99
12951;BME280;6540;50.858;7.232;2023-10-08T09:36:02;51664.91;;;-142.34;28.00
12951;BME280;6540;50.858;7.232;2023-10-08T09:38:33;51648.78;;;-142.34;27.75
12951;BME280;6540;50.858;7.232;2023-10-08T09:40:59;51648.78;;;-142.34;27.92
12951;BME280;6540;50.858;7.232;2023-10-08T09:43:27;51638.69;;;-142.34;28.11
12951;BME280;6540;50.858;7.232;2023-10-08T09:45:56;51668.97;;;-142.34;28.21
12951;BME280;6540;50.858;7.232;2023-10-08T09:48:25;51648.78;;;-142.34;28.22
12951;BME280;6540;50.858;7.232;2023-10-08T09:50:53;51673.00;;;-142.34;28.92
12951;BME280;6540;50.858;7.232;2023-10-08T09:56:14;51652.81;;;-142.34;28.24
12951;BME280;6540;50.858;7.232;2023-10-08T09:58:41;51666.94;;;-142.34;28.65
12951;BME280;6540;50.858;7.232;2023-10-08T10:01:08;51668.97;;;-142.34;28.32
12951;BME280;6540;50.858;7.232;2023-10-08T10:03:35;51660.88;;;-142.34;28.37
12951;BME280;6540;50.858;7.232;2023-10-08T10:06:01;51650.81;;;-142.34;28.25
12951;BME280;6540;50.858;7.232;2023-10-08T10:08:27;51644.75;;;-142.34;28.47
12951;BME280;6540;50.858;7.232;2023-10-08T10:10:58;51691.16;;;-142.34;28.17
12951;BME280;6540;50.858;7.232;2023-10-08T10:13:28;51654.84;;;-142.34;28.02
12951;BME280;6540;50.858;7.232;2023-10-08T10:15:54;51638.69;;;-142.34;28.41
12951;BME280;6540;50.858;7.232;2023-10-08T10:20:53;51632.66;;;-142.34;27.96
12951;BME280;6540;50.858;7.232;2023-10-08T10:26:01;51632.66;;;-142.34;27.93
12951;BME280;6540;50.858;7.232;2023-10-08T10:28:28;51650.81;;;-142.34;28.32
12951;BME280;6540;50.858;7.232;2023-10-08T10:30:53;51685.09;;;-142.34;29.47
12951;BME280;6540;50.858;7.232;2023-10-08T10:33:20;51624.56;;;-142.34;28.44
12951;BME280;6540;50.858;7.232;2023-10-08T10:35:51;51608.44;;;-142.34;27.95
12951;BME280;6540;50.858;7.232;2023-10-08T10:38:20;51608.44;;;-142.34;27.70
12951;BME280;6540;50.858;7.232;2023-10-08T10:40:50;51612.47;;;-142.34;28.25
12951;BME280;6540;50.858;7.232;2023-10-08T10:43:33;51656.84;;;-142.34;28.90
12951;BME280;6540;50.858;7.232;2023-10-08T10:45:59;51608.44;;;-142.34;28.19
12951;BME280;6540;50.858;7.232;2023-10-08T10:48:37;51640.72;;;-142.34;29.00
12951;BME280;6540;50.858;7.232;2023-10-08T10:51:05;51624.56;;;-142.34;28.31
12951;BME280;6540;50.858;7.232;2023-10-08T10:53:37;51600.38;;;-142.34;27.85
12951;BME280;6540;50.858;7.232;2023-10-08T10:56:40;51608.44;;;-142.34;27.78
12951;BME280;6540;50.858;7.232;2023-10-08T10:59:12;51636.69;;;-142.34;28.61
12951;BME280;6540;50.858;7.232;2023-10-08T11:01:50;51596.34;;;-142.34;27.93
12951;BME280;6540;50.858;7.232;2023-10-08T11:04:32;51604.41;;;-142.34;27.85
12951;BME280;6540;50.858;7.232;2023-10-08T11:06:59;51592.31;;;-142.34;27.70
12951;BME280;6540;50.858;7.232;2023-10-08T11:09:26;51568.09;;;-142.34;27.97
12951;BME280;6540;50.858;7.232;2023-10-08T11:12:06;51604.41;;;-142.34;29.05
12951;BME280;6540;50.858;7.232;2023-10-08T11:14:41;51580.19;;;-142.34;27.67
12951;BME280;6540;50.858;7.232;2023-10-08T11:17:15;51612.47;;;-142.34;27.41
12951;BME280;6540;50.858;7.232;2023-10-08T11:19:44;51578.19;;;-142.34;28.06
12951;BME280;6540;50.858;7.232;2023-10-08T11:22:16;51612.47;;;-142.34;27.80
12951;BME280;6540;50.858;7.232;2023-10-08T11:24:44;51592.31;;;-142.34;27.80
12951;BME280;6540;50.858;7.232;2023-10-08T11:27:13;51586.25;;;-142.34;27.98
12951;BME280;6540;50.858;7.232;2023-10-08T11:29:48;51570.13;;;-142.34;27.88
12951;BME280;6540;50.858;7.232;2023-10-08T11:32:22;51578.19;;;-142.34;27.48
12951;BME280;6540;50.858;7.232;2023-10-08T11:35:00;51560.03;;;-142.34;27.64
12951;BME280;6540;50.858;7.232;2023-10-08T11:37:27;51608.44;;;-142.34;27.97
12951;BME280;6540;50.858;7.232;2023-10-08T11:39:53;51628.63;;;-142.34;28.36
12951;BME280;6540;50.858;7.232;2023-10-08T11:42:23;51717.38;;;-142.34;31.11
12951;BME280;6540;50.858;7.232;2023-10-08T11:44:58;51737.53;;;-142.34;30.95
12951;BME280;6540;50.858;7.232;2023-10-08T11:47:42;51677.03;;;-142.34;29.78
12951;BME280;6540;50.858;7.232;2023-10-08T11:50:09;51642.72;;;-142.34;29.63
12951;BME280;6540;50.858;7.232;2023-10-08T11:52:42;51628.63;;;-142.34;29.34
12951;BME280;6540;50.858;7.232;2023-10-08T11:55:09;51664.91;;;-142.34;30.35
12951;BME280;6540;50.858;7.232;2023-10-08T11:57:35;51664.91;;;-142.34;29.96
12951;BME280;6540;50.858;7.232;2023-10-08T12:00:13;51612.47;;;-142.34;29.14
12951;BME280;6540;50.858;7.232;2023-10-08T12:02:48;51582.22;;;-142.34;27.95
12951;BME280;6540;50.858;7.232;2023-10-08T12:05:15;51588.28;;;-142.34;27.90
12951;BME280;6540;50.858;7.232;2023-10-08T12:07:52;51606.44;;;-142.34;28.31
12951;BME280;6540;50.858;7.232;2023-10-08T12:10:18;51558.00;;;-142.34;27.80
12951;BME280;6540;50.858;7.232;2023-10-08T12:12:56;51632.66;;;-142.34;28.41
12951;BME280;6540;50.858;7.232;2023-10-08T12:15:25;51612.47;;;-142.34;29.27
12951;BME280;6540;50.858;7.232;2023-10-08T12:18:04;51648.78;;;-142.34;30.53
12951;BME280;6540;50.858;7.232;2023-10-08T12:20:52;51709.31;;;-142.34;31.73
12951;BME280;6540;50.858;7.232;2023-10-08T12:23:19;51735.53;;;-142.34;32.19
12951;BME280;6540;50.858;7.232;2023-10-08T12:25:54;51713.34;;;-142.34;31.67
12951;BME280;6540;50.858;7.232;2023-10-08T12:28:24;51693.16;;;-142.34;29.87
12951;BME280;6540;50.858;7.232;2023-10-08T12:30:51;51648.78;;;-142.34;30.44
12951;BME280;6540;50.858;7.232;2023-10-08T12:33:20;51656.84;;;-142.34;30.49
12951;BME280;6540;50.858;7.232;2023-10-08T12:35:48;51632.66;;;-142.34;28.64
12951;BME280;6540;50.858;7.232;2023-10-08T12:38:14;51662.91;;;-142.34;29.38
12951;BME280;6540;50.858;7.232;2023-10-08T12:40:40;51662.91;;;-142.34;30.06
12951;BME280;6540;50.858;7.232;2023-10-08T12:43:23;51620.53;;;-142.34;28.61
12951;BME280;6540;50.858;7.232;2023-10-08T12:45:52;51636.69;;;-142.34;28.80
12951;BME280;6540;50.858;7.232;2023-10-08T12:48:22;51616.50;;;-142.34;28.19
12951;BME280;6540;50.858;7.232;2023-10-08T12:50:48;51640.72;;;-142.34;28.93
12951;BME280;6540;50.858;7.232;2023-10-08T12:53:24;51654.84;;;-142.34;29.71
12951;BME280;6540;50.858;7.232;2023-10-08T12:55:55;51616.50;;;-142.34;28.45
12951;BME280;6540;50.858;7.232;2023-10-08T12:58:24;51572.13;;;-142.34;28.41
12951;BME280;6540;50.858;7.232;2023-10-08T13:00:55;51608.44;;;-142.34;28.47
12951;BME280;6540;50.858;7.232;2023-10-08T13:03:28;51658.88;;;-142.34;30.43
12951;BME280;6540;50.858;7.232;2023-10-08T13:05:57;51664.91;;;-142.34;29.63
12951;BME280;6540;50.858;7.232;2023-10-08T13:08:32;51644.75;;;-142.34;29.65
12951;BME280;6540;50.858;7.232;2023-10-08T13:10:59;51658.88;;;-142.34;29.46
12951;BME280;6540;50.858;7.232;2023-10-08T13:13:28;51626.59;;;-142.34;29.22
12951;BME280;6540;50.858;7.232;2023-10-08T13:15:54;51596.34;;;-142.34;29.07
12951;BME280;6540;50.858;7.232;2023-10-08T13:18:24;51558.00;;;-142.34;28.25
12951;BME280;6540;50.858;7.232;2023-10-08T13:20:53;51578.19;;;-142.34;28.24
12951;BME280;6540;50.858;7.232;2023-10-08T13:23:18;51584.22;;;-142.34;28.08